Time;durP1;ratioP1;P1;durP2;ratioP2;P2;SDS_P1;SDS_P2;PMS_P1;PMS_P2;Temp;Humidity;BMP_temperature;BMP_pressure;BME280_temperature;BME280_humidity;BME280_pressure;Samples;Min_cycle;Max_cycle;Signal;HPM_P1;HPM_P2
2023/01/26 00:01:58;;;;;;;3.55;2.63;;;;;;;20.28;25.27;99649.34;5102623;28;20038;-57
2023/01/26 00:04:23;;;;;;;3.80;2.58;;;;;;;20.28;25.47;99647.34;5069471;28;20020;-57
2023/01/26 00:06:49;;;;;;;3.78;2.60;;;;;;;20.28;25.37;99639.03;5080019;28;20111;-69
2023/01/26 00:09:14;;;;;;;4.00;2.70;;;;;;;20.29;25.53;99648.19;5085694;28;20062;-70
2023/01/26 00:11:40;;;;;;;3.38;2.38;;;;;;;20.27;25.48;99640.19;5089403;28;20020;-58
2023/01/26 00:14:06;;;;;;;4.32;3.30;;;;;;;20.27;25.49;99631.88;5087955;28;20046;-57
2023/01/26 00:16:31;;;;;;;3.80;2.63;;;;;;;20.27;25.49;99629.09;5089306;28;20095;-58
2023/01/26 00:18:56;;;;;;;3.47;2.50;;;;;;;20.27;25.28;99629.09;5088678;28;20073;-70
2023/01/26 00:21:23;;;;;;;4.10;2.75;;;;;;;20.28;25.29;99624.34;5088844;28;20070;-68
2023/01/26 00:23:49;;;;;;;4.03;2.80;;;;;;;20.27;25.36;99615.19;5076934;28;20044;-68
2023/01/26 00:26:18;;;;;;;3.97;2.72;;;;;;;20.28;25.50;99613.22;5085194;28;20051;-57
2023/01/26 00:28:44;;;;;;;3.40;2.50;;;;;;;20.28;25.34;99613.22;5083423;28;20046;-69
2023/01/26 00:31:12;;;;;;;3.63;2.55;;;;;;;20.26;25.36;99602.47;5085884;28;20023;-57
2023/01/26 00:33:38;;;;;;;3.78;3.15;;;;;;;20.29;25.42;99600.97;5096313;28;20020;-69
2023/01/26 00:36:04;;;;;;;3.40;2.60;;;;;;;20.27;25.39;99592.97;5086306;28;20396;-57
2023/01/26 00:38:29;;;;;;;3.67;2.80;;;;;;;20.29;25.47;99596.22;5087159;28;20047;-70
2023/01/26 00:40:55;;;;;;;3.83;2.65;;;;;;;20.28;25.41;99591.81;5088244;28;20056;-57
2023/01/26 00:43:20;;;;;;;3.83;2.83;;;;;;;20.28;25.30;99588.22;5089595;28;20403;-58
2023/01/26 00:45:46;;;;;;;3.50;2.80;;;;;;;20.27;25.40;99587.41;5088919;28;20016;-58
2023/01/26 00:48:11;;;;;;;3.72;2.85;;;;;;;20.26;25.33;99587.78;5087812;28;20404;-70
2023/01/26 00:50:37;;;;;;;3.90;2.80;;;;;;;20.26;25.56;99591.38;5082215;28;20032;-57
2023/01/26 00:53:02;;;;;;;3.92;2.75;;;;;;;20.26;25.50;99590.56;5082794;28;20023;-58
2023/01/26 00:55:31;;;;;;;4.18;2.95;;;;;;;20.27;25.58;99587.41;5077048;28;20433;-69
2023/01/26 00:58:05;;;;;;;4.13;3.08;;;;;;;20.25;25.39;99577.84;5091145;28;20387;-57
2023/01/26 01:00:32;;;;;;;4.50;3.05;;;;;;;20.25;25.62;99584.22;5090810;28;20365;-57
2023/01/26 01:02:58;;;;;;;4.30;3.05;;;;;;;20.24;25.43;99577.06;5089423;28;20031;-69
2023/01/26 01:05:26;;;;;;;4.47;3.20;;;;;;;20.24;25.46;99570.69;5089034;28;20020;-58
2023/01/26 01:07:51;;;;;;;4.80;3.30;;;;;;;20.24;25.56;99571.50;5080919;28;20024;-57
2023/01/26 01:10:16;;;;;;;4.60;3.28;;;;;;;20.22;25.38;99565.53;5081733;28;20163;-69
2023/01/26 01:12:43;;;;;;;4.20;3.33;;;;;;;20.22;25.56;99562.75;5096574;28;20027;-58
2023/01/26 01:15:09;;;;;;;4.32;3.17;;;;;;;20.22;25.43;99567.50;5098939;28;20012;-68
2023/01/26 01:17:36;;;;;;;4.22;3.20;;;;;;;20.22;25.60;99564.72;5103467;28;20050;-57
2023/01/26 01:20:04;;;;;;;4.03;3.15;;;;;;;20.22;25.44;99557.19;5080277;28;20399;-58
2023/01/26 01:22:31;;;;;;;4.30;3.45;;;;;;;20.22;25.56;99553.59;5107472;28;20024;-57
2023/01/26 01:24:56;;;;;;;4.18;3.15;;;;;;;20.22;25.61;99557.19;5095536;28;20020;-69
2023/01/26 01:27:22;;;;;;;4.82;3.40;;;;;;;20.21;25.44;99550.00;5090380;28;20012;-57
2023/01/26 01:29:49;;;;;;;3.90;2.83;;;;;;;20.22;25.41;99548.06;5097066;28;20510;-57
2023/01/26 01:32:14;;;;;;;4.82;3.50;;;;;;;20.21;25.47;99544.44;5069476;28;20504;-67
2023/01/26 01:34:40;;;;;;;5.00;3.30;;;;;;;20.22;25.56;99548.06;5084943;28;20060;-69
2023/01/26 01:37:05;;;;;;;4.20;3.20;;;;;;;20.21;25.44;99547.22;5088912;28;20028;-61
2023/01/26 01:39:31;;;;;;;3.95;3.03;;;;;;;20.20;25.58;99533.72;5096942;28;20455;-68
2023/01/26 01:41:56;;;;;;;3.97;2.92;;;;;;;20.21;25.63;99532.53;5086806;28;20281;-57
2023/01/26 01:44:23;;;;;;;4.10;3.10;;;;;;;20.20;25.42;99530.94;5086523;28;20024;-57
2023/01/26 01:47:12;;;;;;;4.35;3.40;;;;;;;20.17;25.49;99526.94;5088883;28;20032;-57
2023/01/26 01:49:45;;;;;;;4.53;3.15;;;;;;;20.20;25.66;99525.38;5075230;28;20027;-69
2023/01/26 01:52:30;;;;;;;4.45;3.33;;;;;;;20.17;25.42;99518.59;5088487;28;20116;-69
2023/01/26 01:55:06;;;;;;;4.40;3.40;;;;;;;20.16;25.49;99519.78;5097060;28;20032;-68
2023/01/26 01:57:43;;;;;;;4.65;3.25;;;;;;;20.17;25.52;99521.38;5098202;28;20137;-56
2023/01/26 02:00:11;;;;;;;4.35;3.42;;;;;;;20.18;25.49;99514.66;5082377;28;20027;-57
2023/01/26 02:02:37;;;;;;;4.20;3.17;;;;;;;20.16;25.65;99513.41;5085085;28;20016;-57
2023/01/26 02:05:13;;;;;;;4.40;3.45;;;;;;;20.15;25.50;99512.63;5099208;28;20072;-67
2023/01/26 02:07:39;;;;;;;4.05;3.13;;;;;;;20.17;25.49;99510.25;5086898;28;20031;-57
2023/01/26 02:10:21;;;;;;;3.97;2.95;;;;;;;20.15;25.54;99501.50;5090021;28;20020;-69
2023/01/26 02:12:49;;;;;;;3.92;3.20;;;;;;;20.16;25.46;99503.09;5095419;28;20065;-69
2023/01/26 02:15:15;;;;;;;4.60;3.28;;;;;;;20.16;25.47;99494.78;5099142;28;20028;-69
2023/01/26 02:17:40;;;;;;;4.65;3.20;;;;;;;20.15;25.69;99493.19;5091068;28;20028;-57
2023/01/26 02:20:32;;;;;;;4.80;3.40;;;;;;;20.12;25.74;99488.34;5092573;28;20458;-57
2023/01/26 02:23:25;;;;;;;4.65;3.50;;;;;;;20.16;25.67;99486.44;5083628;28;20062;-68
2023/01/26 02:26:04;;;;;;;4.00;3.05;;;;;;;20.14;25.47;99486.00;5079790;28;20028;-57
2023/01/26 02:28:30;;;;;;;3.90;3.00;;;;;;;20.15;25.42;99481.28;5093565;28;20377;-70
2023/01/26 02:30:56;;;;;;;4.00;3.08;;;;;;;20.14;25.45;99488.78;5088749;28;20517;-57
2023/01/26 02:33:25;;;;;;;4.10;3.13;;;;;;;20.14;25.54;99483.22;5077017;28;20450;-68
2023/01/26 02:35:51;;;;;;;4.00;3.20;;;;;;;20.13;25.44;99486.38;5085522;28;20107;-57
2023/01/26 02:38:19;;;;;;;4.80;3.30;;;;;;;20.13;25.51;99473.28;5096078;28;20119;-69
2023/01/26 02:40:54;;;;;;;4.00;2.92;;;;;;;20.13;25.48;99481.63;5090388;28;20515;-69
2023/01/26 02:43:22;;;;;;;4.00;3.08;;;;;;;20.11;25.56;99470.06;5092238;28;20016;-68
2023/01/26 02:45:47;;;;;;;4.13;2.92;;;;;;;20.13;25.56;99476.06;5085304;28;20544;-68
2023/01/26 02:48:13;;;;;;;3.88;2.80;;;;;;;20.14;25.51;99471.31;5090887;28;20115;-57
2023/01/26 02:50:38;;;;;;;4.20;2.85;;;;;;;20.12;25.53;99474.47;5087258;28;20032;-68
2023/01/26 02:53:03;;;;;;;4.28;3.15;;;;;;;20.13;25.64;99473.28;5090259;28;20038;-68
2023/01/26 02:55:29;;;;;;;3.90;2.95;;;;;;;20.13;25.43;99469.69;5100593;28;20491;-68
2023/01/26 02:57:59;;;;;;;3.60;2.70;;;;;;;20.12;25.55;99462.56;5088590;28;20078;-57
2023/01/26 03:00:28;;;;;;;3.90;3.00;;;;;;;20.11;25.48;99467.31;5088235;28;20464;-57
2023/01/26 03:02:57;;;;;;;3.65;2.85;;;;;;;20.10;25.56;99462.94;5092319;28;20039;-57
2023/01/26 03:05:23;;;;;;;3.70;2.90;;;;;;;20.12;25.47;99457.00;5089853;28;20024;-57
2023/01/26 03:07:48;;;;;;;3.90;2.90;;;;;;;20.11;25.50;99461.75;5093503;28;20035;-69
2023/01/26 03:10:15;;;;;;;4.07;3.00;;;;;;;20.13;25.54;99458.59;5091571;28;20565;-57
2023/01/26 03:12:41;;;;;;;4.03;2.92;;;;;;;20.12;25.53;99457.78;5093185;28;20021;-57
2023/01/26 03:27:25;;;;;;;3.50;2.85;;;;;;;20.09;25.58;99452.19;5089097;28;20149;-68
2023/01/26 03:29:01;;;;;;;3.28;2.50;;;;;;;20.10;25.40;99451.81;5086774;28;20024;-57
2023/01/26 03:31:26;;;;;;;3.60;2.70;;;;;;;20.10;25.41;99454.59;5089650;28;20032;-68
2023/01/26 03:33:52;;;;;;;3.13;2.40;;;;;;;20.10;25.32;99448.25;5088904;28;20582;-69
2023/01/26 03:36:17;;;;;;;3.47;2.58;;;;;;;20.09;25.53;99447.44;5090833;28;20387;-68
2023/01/26 03:38:42;;;;;;;3.35;2.60;;;;;;;20.09;25.58;99443.88;5090038;28;20067;-69
2023/01/26 03:57:39;;;;;;;3.30;2.60;;;;;;;20.07;25.64;99438.66;5063908;28;20043;-57
2023/01/26 04:00:05;;;;;;;3.50;2.53;;;;;;;20.05;25.77;99430.69;5087747;28;20032;-57
2023/01/26 04:10:50;;;;;;;3.35;2.47;;;;;;;20.05;25.67;99421.56;5073190;28;20039;-57
2023/01/26 04:21:35;;;;;;;3.78;2.85;;;;;;;20.04;25.65;99417.19;5074139;28;20036;-69
2023/01/26 04:24:08;;;;;;;3.50;2.50;;;;;;;20.03;25.70;99416.41;5089738;28;20074;-57
2023/01/26 04:26:35;;;;;;;3.10;2.40;;;;;;;20.05;25.66;99418.78;5089767;28;20039;-57
2023/01/26 04:29:03;;;;;;;3.35;2.42;;;;;;;20.05;25.62;99418.78;5090912;28;20016;-57
2023/01/26 04:31:29;;;;;;;3.38;2.53;;;;;;;20.02;25.51;99414.78;5091521;28;20445;-68
2023/01/26 04:33:54;;;;;;;3.70;2.80;;;;;;;20.04;25.65;99419.97;5087144;28;20103;-57
2023/01/26 04:36:20;;;;;;;3.75;2.50;;;;;;;20.03;25.67;99413.63;5087591;28;20073;-68
2023/01/26 04:38:45;;;;;;;3.47;2.35;;;;;;;20.04;25.53;99408.88;5087206;28;20064;-57
2023/01/26 04:41:11;;;;;;;3.97;2.72;;;;;;;20.02;25.55;99406.47;5089099;28;20368;-69
2023/01/26 04:43:36;;;;;;;3.53;2.55;;;;;;;20.02;25.55;99409.25;5091662;28;20068;-68
2023/01/26 04:46:04;;;;;;;4.03;2.80;;;;;;;20.01;25.59;99396.53;5090200;28;20028;-57
2023/01/26 04:48:30;;;;;;;3.50;2.58;;;;;;;20.04;25.67;99389.44;5088583;28;20499;-57
2023/01/26 04:50:58;;;;;;;3.22;2.30;;;;;;;20.03;25.94;99396.16;5084488;28;20400;-57
2023/01/26 04:53:24;;;;;;;3.90;2.85;;;;;;;20.02;25.50;99383.44;5090327;28;20039;-57
2023/01/26 04:55:50;;;;;;;3.55;2.63;;;;;;;20.01;25.66;99387.41;5100620;28;20023;-57
2023/01/26 04:58:16;;;;;;;3.17;2.40;;;;;;;20.00;25.70;99377.44;5093859;28;20476;-57
2023/01/26 05:00:41;;;;;;;3.38;2.60;;;;;;;20.02;25.49;99377.91;5096531;28;20388;-68
2023/01/26 05:03:06;;;;;;;3.47;2.60;;;;;;;20.00;25.56;99378.28;5090802;28;20396;-68
2023/01/26 05:05:39;;;;;;;3.08;2.40;;;;;;;20.02;25.69;99380.69;5088377;28;20102;-69
2023/01/26 05:08:05;;;;;;;3.75;2.60;;;;;;;20.02;25.64;99389.00;5087112;28;20464;-69
2023/01/26 05:10:31;;;;;;;3.53;2.50;;;;;;;20.01;25.60;99379.88;5089025;28;20373;-69
2023/01/26 05:12:57;;;;;;;3.47;2.45;;;;;;;20.02;25.60;99380.69;5087975;28;20054;-57
2023/01/26 05:15:22;;;;;;;4.40;2.80;;;;;;;20.02;25.54;99372.34;5079190;28;20021;-57
2023/01/26 05:17:48;;;;;;;3.53;2.47;;;;;;;20.01;25.36;99379.88;5089070;28;20081;-69
2023/01/26 05:20:13;;;;;;;3.65;2.53;;;;;;;20.01;25.42;99376.31;5079107;28;20428;-57
2023/01/26 05:22:39;;;;;;;3.72;2.80;;;;;;;20.00;25.36;99367.16;5093717;28;20068;-68
2023/01/26 05:25:04;;;;;;;3.50;2.70;;;;;;;19.99;25.55;99367.53;5096249;28;20091;-57
2023/01/26 05:27:30;;;;;;;3.72;2.80;;;;;;;19.99;25.65;99361.97;5094816;28;20023;-57
2023/01/26 05:29:59;;;;;;;3.30;2.65;;;;;;;20.00;25.44;99369.13;5087269;28;20020;-69
2023/01/26 05:32:25;;;;;;;2.95;2.35;;;;;;;19.99;25.48;99364.75;5089951;28;20097;-57
2023/01/26 05:34:51;;;;;;;3.63;2.63;;;;;;;19.98;25.68;99366.72;5087738;28;20551;-57
2023/01/26 05:37:17;;;;;;;2.88;2.17;;;;;;;19.99;25.42;99364.75;5090768;28;20015;-68
2023/01/26 05:39:42;;;;;;;3.80;2.60;;;;;;;20.00;25.65;99367.16;5090298;28;20161;-57
2023/01/26 05:42:09;;;;;;;3.33;2.33;;;;;;;19.97;25.40;99364.31;5101118;28;20024;-69
2023/01/26 05:44:35;;;;;;;3.65;2.80;;;;;;;19.98;25.41;99355.63;5096763;28;20024;-57
2023/01/26 05:47:00;;;;;;;3.20;2.40;;;;;;;19.98;25.52;99357.59;5092793;28;20032;-69
2023/01/26 05:49:26;;;;;;;3.40;2.63;;;;;;;19.99;25.53;99360.00;5091733;28;20110;-57
2023/01/26 05:51:51;;;;;;;3.33;2.42;;;;;;;19.98;25.47;99352.03;5091624;28;20141;-69
2023/01/26 05:54:16;;;;;;;3.00;2.30;;;;;;;19.99;25.58;99353.63;5094165;28;20020;-71
2023/01/26 05:56:42;;;;;;;3.53;2.55;;;;;;;19.98;25.72;99357.59;5087548;28;20475;-68
2023/01/26 05:59:07;;;;;;;3.65;2.72;;;;;;;19.98;25.70;99352.03;5090955;28;20027;-57
2023/01/26 06:01:33;;;;;;;3.67;2.67;;;;;;;19.98;25.49;99352.84;5088195;28;20016;-69
2023/01/26 06:03:58;;;;;;;3.42;2.75;;;;;;;20.01;25.58;99356.88;5092226;28;20114;-68
2023/01/26 06:06:24;;;;;;;3.42;2.45;;;;;;;20.02;25.53;99350.94;5097257;28;20419;-57
2023/01/26 06:08:49;;;;;;;3.47;2.58;;;;;;;20.07;25.54;99352.59;5090535;28;20190;-69
2023/01/26 06:11:14;;;;;;;3.55;2.53;;;;;;;20.14;25.59;99349.13;5091543;28;20063;-69
2023/01/26 06:13:40;;;;;;;3.25;2.50;;;;;;;20.18;25.57;99356.34;5090857;28;20391;-57
2023/01/26 06:16:05;;;;;;;2.88;1.88;;;;;;;20.22;25.38;99351.66;5090577;28;20028;-57
2023/01/26 06:18:31;;;;;;;3.25;2.15;;;;;;;20.22;25.52;99346.13;5091836;28;20020;-60
2023/01/26 06:20:59;;;;;;;2.65;2.15;;;;;;;20.24;25.34;99351.28;5090353;28;20035;-57
2023/01/26 06:23:25;;;;;;;3.28;2.40;;;;;;;20.24;25.20;99352.09;5094589;28;20038;-68
2023/01/26 06:25:51;;;;;;;3.10;2.40;;;;;;;20.25;25.46;99345.34;5091064;28;20028;-70
2023/01/26 06:28:18;;;;;;;3.33;2.40;;;;;;;20.26;25.40;99337.81;5101788;28;20024;-70
2023/01/26 06:30:43;;;;;;;2.80;2.25;;;;;;;20.28;25.32;99341.03;5095858;28;20028;-69
2023/01/26 06:33:09;;;;;;;2.88;2.20;;;;;;;20.26;25.55;99335.84;5097224;28;20020;-57
2023/01/26 06:35:35;;;;;;;3.00;2.20;;;;;;;20.26;25.54;99338.63;5091054;28;20024;-57
2023/01/26 06:38:00;;;;;;;3.33;2.40;;;;;;;20.28;25.39;99333.50;5086658;28;20675;-56
2023/01/26 06:40:26;;;;;;;3.60;2.55;;;;;;;20.29;25.39;99332.34;5085075;28;20020;-56
2023/01/26 06:42:51;;;;;;;4.60;2.33;;;;;;;20.30;25.50;99335.91;5087317;28;20020;-56
2023/01/26 06:45:19;;;;;;;3.60;2.33;;;;;;;20.29;25.37;99335.13;5095105;28;20062;-56
2023/01/26 06:47:47;;;;;;;2.90;2.40;;;;;;;20.30;25.47;99336.72;5098095;28;20046;-64
2023/01/26 06:50:15;;;;;;;4.07;2.47;;;;;;;20.30;26.92;99333.13;5097699;28;20396;-64
2023/01/26 06:52:43;;;;;;;6.55;2.63;;;;;;;20.31;26.37;99335.53;5091380;28;20392;-65
2023/01/26 06:55:17;;;;;;;9.68;2.50;;;;;;;20.29;26.52;99332.34;5079789;28;20035;-72
2023/01/26 06:57:43;;;;;;;5.95;3.20;;;;;;;20.31;26.52;99331.97;5098565;28;20035;-66
2023/01/26 07:00:10;;;;;;;12.20;2.60;;;;;;;20.33;26.19;99340.72;5079884;28;20020;-67
2023/01/26 07:02:36;;;;;;;9.52;2.47;;;;;;;20.31;26.29;99334.75;5091550;28;20020;-68
2023/01/26 07:05:01;;;;;;;8.52;2.42;;;;;;;20.30;26.30;99328.38;5089520;28;20361;-68
2023/01/26 07:07:26;;;;;;;7.05;3.08;;;;;;;20.30;26.36;99328.38;5089964;28;20111;-68
2023/01/26 07:09:52;;;;;;;7.50;2.70;;;;;;;20.29;26.01;99329.56;5089139;28;20039;-67
2023/01/26 07:12:17;;;;;;;5.72;2.33;;;;;;;20.31;26.23;99332.75;5086094;28;20103;-68
2023/01/26 07:14:43;;;;;;;4.18;2.20;;;;;;;20.30;25.96;99328.38;5086459;28;20052;-66
2023/01/26 07:17:08;;;;;;;4.07;2.10;;;;;;;20.31;26.09;99323.63;5086418;28;20476;-67
2023/01/26 07:19:33;;;;;;;7.35;2.30;;;;;;;20.37;25.85;99319.34;5089446;28;20038;-66
2023/01/26 07:22:00;;;;;;;3.97;2.38;;;;;;;20.42;26.00;99329.31;5089574;28;20047;-67
2023/01/26 07:24:25;;;;;;;3.25;2.15;;;;;;;20.42;25.83;99323.78;5084650;28;20516;-69
2023/01/26 07:26:51;;;;;;;4.72;2.20;;;;;;;20.41;25.94;99325.75;5071706;28;20533;-67
2023/01/26 07:29:17;;;;;;;4.43;2.35;;;;;;;20.41;25.93;99322.97;5095162;28;20024;-68
2023/01/26 07:31:43;;;;;;;3.40;1.98;;;;;;;20.42;26.02;99326.56;5075129;28;20023;-68
2023/01/26 07:34:09;;;;;;;4.20;2.28;;;;;;;20.41;25.82;99316.63;5099390;28;20024;-68
2023/01/26 07:36:34;;;;;;;3.47;2.20;;;;;;;20.40;25.61;99320.56;5082676;28;20032;-67
2023/01/26 07:39:00;;;;;;;3.20;2.30;;;;;;;20.40;25.57;99312.25;5086956;28;20032;-68
2023/01/26 07:41:25;;;;;;;4.68;2.63;;;;;;;20.40;25.59;99323.34;5087391;28;20395;-66
2023/01/26 07:43:50;;;;;;;3.50;2.20;;;;;;;20.40;25.76;99328.91;5088190;28;20097;-67
2023/01/26 07:46:16;;;;;;;6.90;2.50;;;;;;;20.41;26.01;99316.63;5082180;28;20111;-69
2023/01/26 07:48:42;;;;;;;3.15;2.20;;;;;;;20.38;26.03;99315.41;5077218;28;20048;-67
2023/01/26 07:51:09;;;;;;;4.50;2.47;;;;;;;20.40;25.94;99323.34;5085055;28;20491;-65
2023/01/26 07:53:38;;;;;;;4.40;2.50;;;;;;;20.34;26.02;99309.78;5087313;28;20088;-65
2023/01/26 07:56:09;;;;;;;4.43;2.65;;;;;;;20.31;26.05;99307.75;5085221;28;20399;-67
2023/01/26 07:58:34;;;;;;;3.38;2.35;;;;;;;20.32;26.16;99305.78;5076436;28;20036;-65
2023/01/26 08:01:05;;;;;;;4.20;2.42;;;;;;;20.28;26.17;99304.91;5076327;28;20033;-63
2023/01/26 08:03:31;;;;;;;6.03;3.00;;;;;;;20.32;26.64;99306.59;5082717;28;20066;-63
2023/01/26 08:05:56;;;;;;;3.50;2.42;;;;;;;20.36;26.50;99301.09;5081585;28;20028;-63
2023/01/26 08:08:22;;;;;;;6.43;2.72;;;;;;;20.35;26.62;99303.03;5082545;28;20113;-68
2023/01/26 08:10:47;;;;;;;5.85;2.78;;;;;;;20.36;26.66;99301.09;5077559;28;20031;-70
2023/01/26 08:13:12;;;;;;;4.88;2.63;;;;;;;20.39;26.70;99305.09;5079773;28;20046;-65
2023/01/26 08:15:38;;;;;;;3.92;2.70;;;;;;;20.41;26.79;99311.06;5065236;28;20047;-66
2023/01/26 08:18:03;;;;;;;3.08;2.40;;;;;;;20.42;27.12;99307.09;5081355;28;20024;-71
2023/01/26 08:20:29;;;;;;;6.90;2.80;;;;;;;20.44;27.08;99307.56;5065933;28;20028;-64
2023/01/26 08:22:55;;;;;;;6.15;2.60;;;;;;;20.43;27.05;99300.38;5086629;28;20034;-69
2023/01/26 08:25:20;;;;;;;5.03;2.42;;;;;;;20.47;26.94;99304.03;5082865;28;20024;-67
2023/01/26 08:27:46;;;;;;;3.28;2.38;;;;;;;20.53;27.14;99305.31;5084801;28;20031;-62
2023/01/26 08:30:11;;;;;;;3.13;2.17;;;;;;;20.54;26.83;99307.72;5086161;28;20412;-63
2023/01/26 08:32:37;;;;;;;3.30;2.33;;;;;;;20.54;26.79;99302.16;5084455;28;20020;-64
2023/01/26 08:35:02;;;;;;;5.75;3.00;;;;;;;20.55;26.73;99302.97;5086784;28;20051;-64
2023/01/26 08:37:28;;;;;;;4.22;2.50;;;;;;;20.55;26.79;99298.19;5089157;28;20108;-70
2023/01/26 08:39:53;;;;;;;5.82;2.47;;;;;;;20.54;26.84;99301.38;5086617;28;20048;-63
2023/01/26 08:42:19;;;;;;;4.45;3.08;;;;;;;20.54;26.80;99296.59;5088277;28;20042;-63
2023/01/26 08:44:44;;;;;;;3.55;2.60;;;;;;;20.53;26.82;99292.22;5071765;28;20071;-65
2023/01/26 08:47:09;;;;;;;13.23;2.97;;;;;;;20.52;26.56;99304.53;5069852;28;20392;-63
2023/01/26 08:49:35;;;;;;;6.78;2.90;;;;;;;20.51;26.96;99302.13;5064538;28;20036;-69
2023/01/26 08:52:00;;;;;;;4.13;2.53;;;;;;;20.51;26.81;99305.72;5088877;28;20116;-72
2023/01/26 08:54:25;;;;;;;3.85;2.50;;;;;;;20.55;26.90;99302.97;5086255;28;20028;-64
2023/01/26 08:56:52;;;;;;;5.13;2.65;;;;;;;20.54;26.79;99306.91;5083147;28;20396;-64
2023/01/26 08:59:17;;;;;;;4.75;2.85;;;;;;;20.53;26.75;99305.31;5082350;28;20028;-71
2023/01/26 09:01:42;;;;;;;4.95;3.00;;;;;;;20.55;26.97;99305.75;5079114;28;20137;-62
2023/01/26 09:04:08;;;;;;;24.65;17.73;;;;;;;20.55;26.57;99302.97;5068576;28;20119;-62
2023/01/26 09:06:33;;;;;;;10.75;7.57;;;;;;;20.55;26.80;99311.31;5080107;28;20024;-70
2023/01/26 09:08:59;;;;;;;9.45;6.40;;;;;;;20.53;26.75;99297.00;5082184;28;20030;-70
2023/01/26 09:11:24;;;;;;;10.98;7.60;;;;;;;20.55;26.82;99305.75;5058890;28;20039;-70
2023/01/26 09:13:55;;;;;;;10.60;7.85;;;;;;;20.54;26.67;99295.81;5085032;28;20034;-63
2023/01/26 09:16:22;;;;;;;10.65;7.40;;;;;;;20.54;26.60;99306.91;5089135;28;20573;-64
2023/01/26 09:18:50;;;;;;;9.55;7.32;;;;;;;20.57;26.70;99304.22;5088558;28;20031;-72
2023/01/26 09:21:17;;;;;;;9.52;6.95;;;;;;;20.54;26.49;99301.38;5096345;28;20074;-64
2023/01/26 09:23:42;;;;;;;8.65;6.53;;;;;;;20.56;26.33;99312.91;5088928;28;20027;-63
2023/01/26 09:26:08;;;;;;;8.75;6.03;;;;;;;20.56;26.36;99302.56;5085215;28;20032;-72
2023/01/26 09:28:33;;;;;;;9.30;6.03;;;;;;;20.57;26.38;99306.16;5071362;28;20043;-63
2023/01/26 09:31:04;;;;;;;11.10;6.38;;;;;;;20.58;26.17;99311.38;5072772;28;20032;-64
2023/01/26 09:33:30;;;;;;;7.75;5.60;;;;;;;20.58;26.27;99303.03;5086793;28;20032;-63
2023/01/26 09:35:55;;;;;;;7.35;5.20;;;;;;;20.58;26.32;99305.00;5065355;28;20024;-63
2023/01/26 09:38:21;;;;;;;7.28;5.30;;;;;;;20.59;26.36;99301.03;5081734;28;20051;-63
2023/01/26 09:41:02;;;;;;;7.40;5.20;;;;;;;20.58;26.03;99305.00;5087767;28;20047;-65
2023/01/26 09:43:40;;;;;;;9.88;4.60;;;;;;;20.58;26.02;99307.78;5088890;28;20035;-76
2023/01/26 09:46:21;;;;;;;7.10;5.15;;;;;;;20.59;25.89;99309.38;5087299;28;20402;-63
2023/01/26 09:49:00;;;;;;;6.65;4.53;;;;;;;20.61;25.99;99312.59;5084106;28;20107;-69
2023/01/26 09:51:35;;;;;;;7.10;4.70;;;;;;;20.60;26.09;99311.78;5085509;28;20036;-64
2023/01/26 09:54:15;;;;;;;6.80;4.78;;;;;;;20.58;26.47;99307.78;5092650;28;20499;-66
2023/01/26 09:56:41;;;;;;;7.25;4.80;;;;;;;20.62;26.34;99314.19;5088263;28;20380;-63
2023/01/26 09:59:39;;;;;;;7.45;4.20;;;;;;;20.63;26.45;99313.00;5067898;28;20035;-73
2023/01/26 10:02:44;;;;;;;5.97;4.32;;;;;;;20.67;26.61;99310.28;5061815;28;20036;-63
2023/01/26 10:05:20;;;;;;;7.30;4.00;;;;;;;20.71;26.63;99311.91;5047291;28;20040;-71
2023/01/26 10:07:46;;;;;;;11.55;4.05;;;;;;;20.72;26.68;99310.75;5081761;28;20035;-66
2023/01/26 10:10:22;;;;;;;8.57;4.30;;;;;;;20.73;27.08;99309.56;5085857;28;20044;-65
2023/01/26 10:12:50;;;;;;;8.15;4.10;;;;;;;20.69;26.91;99313.47;5089233;28;20024;-66
2023/01/26 10:15:38;;;;;;;16.20;4.15;;;;;;;20.69;26.94;99314.28;5065511;28;20032;-71
2023/01/26 10:18:11;;;;;;;8.23;3.72;;;;;;;20.66;26.54;99306.69;5060192;28;20036;-71
2023/01/26 10:20:44;;;;;;;7.95;3.90;;;;;;;20.66;26.59;99311.47;5067137;28;20400;-66
2023/01/26 10:23:16;;;;;;;5.88;3.50;;;;;;;20.68;26.63;99315.47;5062959;28;20434;-63
2023/01/26 10:25:45;;;;;;;10.03;4.37;;;;;;;20.70;26.59;99313.09;5058170;28;20035;-77
2023/01/26 10:28:16;;;;;;;8.40;4.55;;;;;;;20.70;26.43;99313.09;5085555;28;20034;-75
2023/01/26 10:30:43;;;;;;;6.53;3.47;;;;;;;20.72;26.62;99316.31;5062211;28;20032;-67
2023/01/26 10:33:15;;;;;;;6.80;3.78;;;;;;;20.73;26.21;99304.03;5080718;28;20561;-69
2023/01/26 10:35:41;;;;;;;5.00;3.40;;;;;;;20.72;26.14;99313.53;5082173;28;20038;-65
2023/01/26 10:38:42;;;;;;;9.48;3.85;;;;;;;20.73;26.20;99306.00;5083522;28;20056;-66
2023/01/26 10:41:25;;;;;;;5.63;3.58;;;;;;;20.76;26.15;99303.25;5076724;28;20399;-65
2023/01/26 10:43:56;;;;;;;5.40;3.50;;;;;;;20.78;25.92;99305.66;5086697;28;20024;-67
2023/01/26 10:46:36;;;;;;;5.28;3.30;;;;;;;20.85;26.13;99298.19;5066520;28;20032;-68
2023/01/26 10:49:15;;;;;;;7.15;3.60;;;;;;;20.88;25.88;99294.69;5078022;28;20085;-65
2023/01/26 10:51:45;;;;;;;5.53;3.55;;;;;;;20.84;25.72;99301.38;5085618;28;20032;-65
2023/01/26 10:54:27;;;;;;;6.60;3.55;;;;;;;20.82;25.70;99292.63;5089851;28;20039;-66
2023/01/26 10:56:56;;;;;;;6.80;3.90;;;;;;;20.81;25.52;99300.16;5064321;28;20043;-64
2023/01/26 10:59:26;;;;;;;4.55;3.00;;;;;;;20.78;25.76;99292.53;5064763;28;20082;-67
2023/01/26 11:01:55;;;;;;;6.22;3.45;;;;;;;20.74;25.39;99288.94;5074540;28;20024;-66
2023/01/26 11:04:21;;;;;;;5.32;3.05;;;;;;;20.75;25.52;99296.09;5082249;28;20039;-71
2023/01/26 11:06:46;;;;;;;8.00;3.30;;;;;;;20.75;25.61;99289.75;5074865;28;20032;-71
2023/01/26 11:09:21;;;;;;;5.68;3.05;;;;;;;20.76;25.40;99292.13;5078534;28;20042;-70
2023/01/26 11:11:59;;;;;;;6.28;3.22;;;;;;;20.77;25.35;99296.50;5080331;28;20026;-70
2023/01/26 11:14:26;;;;;;;8.57;3.10;;;;;;;20.76;25.06;99286.56;5084085;28;20104;-69
2023/01/26 11:17:04;;;;;;;5.25;2.70;;;;;;;20.75;25.24;99279.41;5081439;28;20088;-58
2023/01/26 11:20:00;;;;;;;4.30;2.80;;;;;;;20.71;25.10;99280.53;5087598;28;20024;-59
2023/01/26 11:22:42;;;;;;;4.70;2.85;;;;;;;20.75;25.26;99290.53;5045314;28;20195;-59
2023/01/26 11:25:23;;;;;;;5.20;2.60;;;;;;;20.74;25.16;99280.59;5086745;28;20019;-70
2023/01/26 11:28:08;;;;;;;3.95;2.38;;;;;;;20.73;25.01;99281.78;5087447;28;20479;-58
2023/01/26 11:31:02;;;;;;;5.07;2.72;;;;;;;20.73;24.89;99281.78;5078592;28;20035;-70
2023/01/26 11:33:39;;;;;;;6.45;2.90;;;;;;;20.71;24.76;99273.00;5076994;28;20063;-72
2023/01/26 11:36:18;;;;;;;5.13;2.47;;;;;;;20.69;24.58;99278.16;5058312;28;20105;-76
2023/01/26 11:39:07;;;;;;;4.88;2.15;;;;;;;20.66;24.57;99267.00;5084795;28;20033;-75
2023/01/26 11:42:04;;;;;;;5.22;2.22;;;;;;;20.65;24.70;99268.97;5075078;28;20020;-76
2023/01/26 11:45:00;;;;;;;4.68;2.20;;;;;;;20.65;24.50;99266.19;5067458;28;20027;-63
2023/01/26 11:47:44;;;;;;;3.95;2.15;;;;;;;20.64;24.70;99263.78;5067980;28;20027;-76
2023/01/26 11:50:37;;;;;;;7.03;2.40;;;;;;;20.63;24.41;99260.19;5080034;28;20035;-76
2023/01/26 11:53:34;;;;;;;6.43;2.30;;;;;;;20.59;24.43;99262.94;5063419;28;20059;-71
2023/01/26 11:56:40;;;;;;;4.70;2.00;;;;;;;20.60;24.76;99255.41;5080161;28;20012;-68
2023/01/26 11:59:13;;;;;;;3.17;1.88;;;;;;;20.63;24.49;99260.19;5046833;28;20091;-68
2023/01/26 12:02:03;;;;;;;3.13;1.83;;;;;;;20.59;24.37;99251.81;5064314;28;20364;-66
2023/01/26 12:04:34;;;;;;;3.30;2.10;;;;;;;20.61;24.54;99248.66;5062066;28;20075;-68
2023/01/26 12:07:10;;;;;;;3.17;1.98;;;;;;;20.63;24.27;99243.53;5089237;28;20443;-66
2023/01/26 12:09:42;;;;;;;3.00;1.95;;;;;;;20.65;24.46;99245.94;5085468;28;20469;-62
2023/01/26 12:12:16;;;;;;;3.03;2.10;;;;;;;20.65;24.74;99238.41;5078114;28;20448;-62
2023/01/26 12:15:05;;;;;;;4.82;1.70;;;;;;;20.72;25.17;99241.28;5089532;28;20042;-65
2023/01/26 12:17:43;;;;;;;8.52;2.10;;;;;;;20.78;25.42;99239.72;5091949;28;20024;-63
2023/01/26 12:20:34;;;;;;;14.85;2.30;;;;;;;20.84;25.31;99232.66;5090059;28;20077;-65
2023/01/26 12:23:30;;;;;;;4.10;1.80;;;;;;;20.86;25.42;99233.09;5073790;28;20605;-64
2023/01/26 12:26:00;;;;;;;4.57;1.75;;;;;;;20.89;25.26;99235.13;5068059;28;20035;-62
2023/01/26 12:28:36;;;;;;;3.78;2.05;;;;;;;20.90;25.19;99235.91;5081221;28;20024;-61
2023/01/26 12:31:14;;;;;;;5.43;2.30;;;;;;;20.88;25.40;99227.97;5079788;28;20023;-61